IFACO LICA-LICR
Flight info
| Callsign | IFACO |
|---|---|
| Flight time | 0h 32m |
| Altitude | 11000 |
| Route | PEROS |
| Aircraft | DA42/L-SDGFY/L |
Departure
| Time | 2026-05-04 19:57 |
|---|---|
| Airport | Lamezia Terme Sant'Eufemia International Airport (LICA) |
Arrival
| Time | 2026-05-04 20:29 |
|---|---|
| Airport | Reggio Calabria Airport (LICR) |
| Time | Latitude | Longitude | Altitude | Speed | Heading |
|---|---|---|---|---|---|
| 2026-05-04 19:15 | 38.90751 | 16.25292 | 41 ft | 0 kts | 54° |
| 2026-05-04 19:25 | 38.90752 | 16.25292 | 41 ft | 0 kts | 63° |
| 2026-05-04 19:39 | 38.90754 | 16.25295 | 41 ft | 3 kts | 18° |
| 2026-05-04 19:40 | 38.90753 | 16.25279 | 41 ft | 3 kts | 193° |
| 2026-05-04 19:40 | 38.90724 | 16.25279 | 41 ft | 4 kts | 177° |
| 2026-05-04 19:40 | 38.90701 | 16.25286 | 41 ft | 4 kts | 159° |
| 2026-05-04 19:40 | 38.90660 | 16.25317 | 41 ft | 8 kts | 144° |
| 2026-05-04 19:41 | 38.90628 | 16.25402 | 42 ft | 14 kts | 97° |
| 2026-05-04 19:41 | 38.90612 | 16.25535 | 43 ft | 14 kts | 98° |
| 2026-05-04 19:41 | 38.90600 | 16.25645 | 43 ft | 12 kts | 101° |
| 2026-05-04 19:41 | 38.90589 | 16.25742 | 44 ft | 11 kts | 99° |
| 2026-05-04 19:42 | 38.90577 | 16.25835 | 45 ft | 10 kts | 99° |
| 2026-05-04 19:42 | 38.90568 | 16.25916 | 45 ft | 9 kts | 98° |
| 2026-05-04 19:42 | 38.90555 | 16.26018 | 46 ft | 13 kts | 100° |
| 2026-05-04 19:42 | 38.90537 | 16.26140 | 47 ft | 15 kts | 114° |
| 2026-05-04 19:43 | 38.90489 | 16.26207 | 48 ft | 0 kts | 140° |
| 2026-05-04 19:53 | 38.90485 | 16.26211 | 48 ft | 4 kts | 142° |
| 2026-05-04 19:53 | 38.90427 | 16.26247 | 48 ft | 14 kts | 161° |
| 2026-05-04 19:54 | 38.90337 | 16.26246 | 49 ft | 7 kts | 232° |
| 2026-05-04 19:54 | 38.90325 | 16.26222 | 49 ft | 10 kts | 238° |
| 2026-05-04 19:54 | 38.90313 | 16.26183 | 49 ft | 0 kts | 275° |
| 2026-05-04 19:56 | 38.90314 | 16.26183 | 49 ft | 2 kts | 275° |
| 2026-05-04 19:56 | 38.90349 | 16.25851 | 45 ft | 68 kts | 279° |
| 2026-05-04 19:56 | 38.90387 | 16.25140 | 253 ft | 80 kts | 264° |
| 2026-05-04 19:56 | 38.90362 | 16.24396 | 546 ft | 86 kts | 269° |
| 2026-05-04 19:57 | 38.90474 | 16.23542 | 749 ft | 102 kts | 282° |
| 2026-05-04 19:57 | 38.90632 | 16.22662 | 1104 ft | 100 kts | 282° |
| 2026-05-04 19:57 | 38.90779 | 16.21780 | 1401 ft | 102 kts | 281° |
| 2026-05-04 19:57 | 38.90908 | 16.20885 | 1706 ft | 102 kts | 280° |
| 2026-05-04 19:58 | 38.91025 | 16.19985 | 2009 ft | 102 kts | 279° |
| 2026-05-04 19:58 | 38.91137 | 16.19079 | 2311 ft | 103 kts | 279° |
| 2026-05-04 19:58 | 38.91246 | 16.18168 | 2613 ft | 103 kts | 279° |
| 2026-05-04 19:58 | 38.91353 | 16.17253 | 2915 ft | 104 kts | 279° |
| 2026-05-04 19:59 | 38.91460 | 16.16332 | 3214 ft | 104 kts | 279° |
| 2026-05-04 19:59 | 38.91567 | 16.15409 | 3517 ft | 105 kts | 279° |
| 2026-05-04 19:59 | 38.91674 | 16.14480 | 3816 ft | 105 kts | 279° |
| 2026-05-04 19:59 | 38.91781 | 16.13547 | 4115 ft | 106 kts | 279° |
| 2026-05-04 20:00 | 38.91823 | 16.12605 | 4404 ft | 107 kts | 259° |
| 2026-05-04 20:00 | 38.91464 | 16.11802 | 4703 ft | 107 kts | 223° |
| 2026-05-04 20:00 | 38.90895 | 16.11176 | 4999 ft | 108 kts | 221° |
| 2026-05-04 20:00 | 38.90318 | 16.10556 | 5295 ft | 109 kts | 221° |
| 2026-05-04 20:01 | 38.89738 | 16.09932 | 5588 ft | 109 kts | 221° |
| 2026-05-04 20:01 | 38.89155 | 16.09306 | 5885 ft | 110 kts | 221° |
| 2026-05-04 20:01 | 38.88569 | 16.08677 | 6174 ft | 110 kts | 221° |
| 2026-05-04 20:01 | 38.87981 | 16.08044 | 6464 ft | 110 kts | 221° |
| 2026-05-04 20:02 | 38.87391 | 16.07409 | 6754 ft | 111 kts | 221° |
| 2026-05-04 20:02 | 38.86799 | 16.06771 | 7043 ft | 112 kts | 221° |
| 2026-05-04 20:02 | 38.86203 | 16.06129 | 7333 ft | 112 kts | 221° |
| 2026-05-04 20:02 | 38.85605 | 16.05486 | 7622 ft | 113 kts | 221° |
| 2026-05-04 20:03 | 38.85004 | 16.04839 | 7916 ft | 113 kts | 221° |
| 2026-05-04 20:03 | 38.84400 | 16.04189 | 8190 ft | 114 kts | 221° |
| 2026-05-04 20:03 | 38.83793 | 16.03536 | 8485 ft | 114 kts | 221° |
| 2026-05-04 20:03 | 38.83183 | 16.02880 | 8770 ft | 115 kts | 221° |
| 2026-05-04 20:04 | 38.82571 | 16.02222 | 9055 ft | 115 kts | 221° |
| 2026-05-04 20:04 | 38.81956 | 16.01560 | 9338 ft | 116 kts | 221° |
| 2026-05-04 20:04 | 38.81338 | 16.00896 | 9623 ft | 116 kts | 221° |
| 2026-05-04 20:04 | 38.80717 | 16.00229 | 9905 ft | 117 kts | 221° |
| 2026-05-04 20:05 | 38.80094 | 15.99560 | 10186 ft | 117 kts | 221° |
| 2026-05-04 20:05 | 38.79467 | 15.98887 | 10468 ft | 118 kts | 221° |
| 2026-05-04 20:05 | 38.78838 | 15.98211 | 10747 ft | 118 kts | 221° |
| 2026-05-04 20:05 | 38.78205 | 15.97531 | 11002 ft | 122 kts | 221° |
| 2026-05-04 20:06 | 38.77495 | 15.96764 | 11009 ft | 143 kts | 221° |
| 2026-05-04 20:06 | 38.76700 | 15.95907 | 11009 ft | 158 kts | 221° |
| 2026-05-04 20:06 | 38.75828 | 15.94971 | 11008 ft | 168 kts | 220° |
| 2026-05-04 20:06 | 38.74911 | 15.93991 | 11008 ft | 175 kts | 220° |
| 2026-05-04 20:07 | 38.73967 | 15.92983 | 11008 ft | 178 kts | 220° |
| 2026-05-04 20:07 | 38.73007 | 15.91956 | 11007 ft | 181 kts | 220° |
| 2026-05-04 20:07 | 38.72041 | 15.90922 | 11007 ft | 182 kts | 220° |
| 2026-05-04 20:07 | 38.71071 | 15.89882 | 11007 ft | 182 kts | 220° |
| 2026-05-04 20:08 | 38.70098 | 15.88840 | 11006 ft | 182 kts | 220° |
| 2026-05-04 20:08 | 38.69124 | 15.87795 | 11006 ft | 183 kts | 220° |
| 2026-05-04 20:08 | 38.68151 | 15.86750 | 11006 ft | 183 kts | 220° |
| 2026-05-04 20:08 | 38.67176 | 15.85703 | 11007 ft | 183 kts | 220° |
| 2026-05-04 20:09 | 38.66201 | 15.84657 | 11006 ft | 183 kts | 220° |
| 2026-05-04 20:09 | 38.65225 | 15.83610 | 11006 ft | 183 kts | 220° |
| 2026-05-04 20:09 | 38.64247 | 15.82567 | 11005 ft | 183 kts | 219° |
| 2026-05-04 20:09 | 38.63113 | 15.81832 | 10998 ft | 184 kts | 196° |
| 2026-05-04 20:10 | 38.61873 | 15.81429 | 11002 ft | 184 kts | 194° |
| 2026-05-04 20:10 | 38.60629 | 15.81042 | 11002 ft | 184 kts | 194° |
| 2026-05-04 20:10 | 38.59387 | 15.80655 | 11002 ft | 184 kts | 194° |
| 2026-05-04 20:10 | 38.58143 | 15.80265 | 11002 ft | 184 kts | 194° |
| 2026-05-04 20:11 | 38.56899 | 15.79875 | 11002 ft | 184 kts | 194° |
| 2026-05-04 20:11 | 38.55655 | 15.79486 | 11002 ft | 184 kts | 194° |
| 2026-05-04 20:11 | 38.54411 | 15.79096 | 11002 ft | 184 kts | 194° |
| 2026-05-04 20:11 | 38.53168 | 15.78706 | 11002 ft | 184 kts | 194° |
| 2026-05-04 20:12 | 38.51925 | 15.78317 | 11002 ft | 184 kts | 194° |
| 2026-05-04 20:12 | 38.50682 | 15.77927 | 11002 ft | 184 kts | 194° |
| 2026-05-04 20:12 | 38.49440 | 15.77538 | 11002 ft | 184 kts | 194° |
| 2026-05-04 20:12 | 38.48197 | 15.77148 | 11002 ft | 184 kts | 194° |
| 2026-05-04 20:13 | 38.46955 | 15.76760 | 11002 ft | 184 kts | 194° |
| 2026-05-04 20:13 | 38.45712 | 15.76371 | 11002 ft | 184 kts | 194° |
| 2026-05-04 20:13 | 38.44470 | 15.75981 | 11002 ft | 184 kts | 194° |
| 2026-05-04 20:13 | 38.43224 | 15.75590 | 10938 ft | 187 kts | 194° |
| 2026-05-04 20:14 | 38.41938 | 15.75186 | 10689 ft | 197 kts | 194° |
| 2026-05-04 20:14 | 38.40585 | 15.74763 | 10426 ft | 203 kts | 194° |
| 2026-05-04 20:14 | 38.39201 | 15.74331 | 10151 ft | 206 kts | 194° |
| 2026-05-04 20:14 | 38.37800 | 15.73894 | 9877 ft | 208 kts | 194° |
| 2026-05-04 20:15 | 38.36392 | 15.73456 | 9599 ft | 209 kts | 194° |
| 2026-05-04 20:15 | 38.34982 | 15.73017 | 9321 ft | 209 kts | 194° |
| 2026-05-04 20:15 | 38.33575 | 15.72564 | 9039 ft | 208 kts | 198° |
| 2026-05-04 20:15 | 38.32400 | 15.71578 | 8767 ft | 202 kts | 230° |
| 2026-05-04 20:16 | 38.31826 | 15.69974 | 8389 ft | 201 kts | 260° |
| 2026-05-04 20:16 | 38.31935 | 15.68234 | 8115 ft | 197 kts | 287° |
| 2026-05-04 20:16 | 38.32255 | 15.66553 | 7851 ft | 194 kts | 280° |
| 2026-05-04 20:16 | 38.32424 | 15.64862 | 7593 ft | 192 kts | 274° |
| 2026-05-04 20:17 | 38.32471 | 15.63172 | 7339 ft | 190 kts | 270° |
| 2026-05-04 20:17 | 38.32424 | 15.61494 | 7086 ft | 189 kts | 266° |
| 2026-05-04 20:17 | 38.32293 | 15.59834 | 6834 ft | 188 kts | 262° |
| 2026-05-04 20:17 | 38.32084 | 15.58193 | 6585 ft | 187 kts | 259° |
| 2026-05-04 20:18 | 38.31802 | 15.56576 | 6336 ft | 187 kts | 256° |
| 2026-05-04 20:18 | 38.31449 | 15.54989 | 6081 ft | 186 kts | 251° |
| 2026-05-04 20:18 | 38.30711 | 15.53666 | 5837 ft | 186 kts | 217° |
| 2026-05-04 20:18 | 38.29504 | 15.53140 | 5588 ft | 187 kts | 182° |
| 2026-05-04 20:19 | 38.28253 | 15.53590 | 5223 ft | 192 kts | 149° |
| 2026-05-04 20:19 | 38.27033 | 15.54297 | 4733 ft | 196 kts | 168° |
| 2026-05-04 20:19 | 38.25696 | 15.54605 | 4240 ft | 196 kts | 173° |
| 2026-05-04 20:19 | 38.24343 | 15.54789 | 3741 ft | 195 kts | 175° |
| 2026-05-04 20:20 | 38.22996 | 15.54977 | 3241 ft | 195 kts | 168° |
| 2026-05-04 20:20 | 38.21771 | 15.55610 | 2955 ft | 185 kts | 154° |
| 2026-05-04 20:20 | 38.20645 | 15.56338 | 2712 ft | 179 kts | 153° |
| 2026-05-04 20:20 | 38.19559 | 15.57050 | 2542 ft | 170 kts | 153° |
| 2026-05-04 20:21 | 38.18565 | 15.57703 | 2542 ft | 158 kts | 153° |
| 2026-05-04 20:21 | 38.17572 | 15.58351 | 2360 ft | 164 kts | 153° |
| 2026-05-04 20:21 | 38.15482 | 15.59710 | 1870 ft | 172 kts | 153° |
| 2026-05-04 20:22 | 38.14414 | 15.60406 | 1644 ft | 172 kts | 153° |
| 2026-05-04 20:22 | 38.13347 | 15.61101 | 1419 ft | 173 kts | 153° |
| 2026-05-04 20:22 | 38.12295 | 15.61786 | 1343 ft | 164 kts | 153° |
| 2026-05-04 20:22 | 38.11264 | 15.62284 | 1333 ft | 156 kts | 177° |
| 2026-05-04 20:23 | 38.10270 | 15.61895 | 1340 ft | 149 kts | 216° |
| 2026-05-04 20:23 | 38.09465 | 15.61086 | 1345 ft | 147 kts | 220° |
| 2026-05-04 20:23 | 38.08690 | 15.60257 | 1341 ft | 145 kts | 221° |
| 2026-05-04 20:23 | 38.07923 | 15.59432 | 1340 ft | 144 kts | 221° |
| 2026-05-04 20:24 | 38.07160 | 15.58611 | 1340 ft | 144 kts | 221° |
| 2026-05-04 20:24 | 38.06299 | 15.58003 | 1328 ft | 145 kts | 189° |
| 2026-05-04 20:24 | 38.05323 | 15.58247 | 1336 ft | 145 kts | 158° |
| 2026-05-04 20:24 | 38.04423 | 15.58752 | 1325 ft | 134 kts | 156° |
| 2026-05-04 20:25 | 38.03630 | 15.59216 | 1337 ft | 118 kts | 156° |
| 2026-05-04 20:25 | 38.02913 | 15.59639 | 1327 ft | 110 kts | 156° |
| 2026-05-04 20:25 | 38.02218 | 15.60050 | 1218 ft | 115 kts | 156° |
| 2026-05-04 20:25 | 38.01458 | 15.60497 | 984 ft | 124 kts | 156° |
| 2026-05-04 20:26 | 38.00774 | 15.61145 | 727 ft | 127 kts | 118° |
| 2026-05-04 20:26 | 38.00757 | 15.62193 | 692 ft | 115 kts | 70° |
| 2026-05-04 20:26 | 38.01059 | 15.63093 | 710 ft | 108 kts | 58° |
| 2026-05-04 20:26 | 38.01484 | 15.63872 | 714 ft | 104 kts | 53° |
| 2026-05-04 20:27 | 38.01915 | 15.64521 | 740 ft | 93 kts | 45° |
| 2026-05-04 20:27 | 38.02392 | 15.65038 | 770 ft | 91 kts | 33° |
| 2026-05-04 20:27 | 38.02918 | 15.65473 | 825 ft | 91 kts | 28° |
| 2026-05-04 20:27 | 38.03492 | 15.65832 | 841 ft | 93 kts | 22° |
| 2026-05-04 20:28 | 38.04111 | 15.66091 | 827 ft | 97 kts | 12° |
| 2026-05-04 20:28 | 38.04786 | 15.66180 | 662 ft | 95 kts | 359° |
| 2026-05-04 20:28 | 38.05422 | 15.66106 | 462 ft | 91 kts | 348° |
| 2026-05-04 20:28 | 38.06015 | 15.65861 | 246 ft | 92 kts | 335° |
| 2026-05-04 20:29 | 38.06584 | 15.65496 | 94 ft | 93 kts | 332° |
| 2026-05-04 20:29 | 38.07112 | 15.65157 | 43 ft | 64 kts | 336° |
| 2026-05-04 20:29 | 38.07295 | 15.65105 | 50 ft | 13 kts | 75° |
| 2026-05-04 20:29 | 38.07311 | 15.65157 | 54 ft | 0 kts | 63° |
| 2026-05-04 20:30 | 38.07324 | 15.65191 | 54 ft | 9 kts | 64° |
| 2026-05-04 20:30 | 38.07351 | 15.65260 | 60 ft | 8 kts | 64° |
| 2026-05-04 20:30 | 38.07359 | 15.65278 | 59 ft | 0 kts | 62° |
| 2026-05-04 20:41 | 38.07362 | 15.65270 | 58 ft | 7 kts | 219° |
| 2026-05-04 20:42 | 38.07316 | 15.65174 | 56 ft | 20 kts | 242° |
| 2026-05-04 20:42 | 38.07298 | 15.65042 | 50 ft | 10 kts | 323° |
| 2026-05-04 20:42 | 38.07303 | 15.65037 | 50 ft | 0 kts | 332° |
| 2026-05-04 20:42 | 38.07446 | 15.64944 | 59 ft | 54 kts | 333° |
| 2026-05-04 20:43 | 38.07897 | 15.64640 | 171 ft | 80 kts | 327° |
| 2026-05-04 20:43 | 38.08365 | 15.64302 | 492 ft | 77 kts | 330° |
| 2026-05-04 20:43 | 38.08908 | 15.63964 | 693 ft | 96 kts | 333° |
| 2026-05-04 20:43 | 38.09489 | 15.63617 | 1061 ft | 92 kts | 333° |
| 2026-05-04 20:44 | 38.10072 | 15.63272 | 1363 ft | 93 kts | 334° |
| 2026-05-04 20:44 | 38.10657 | 15.62924 | 1671 ft | 93 kts | 334° |
| 2026-05-04 20:44 | 38.11246 | 15.62571 | 1978 ft | 94 kts | 334° |
| 2026-05-04 20:44 | 38.11836 | 15.62217 | 2282 ft | 94 kts | 334° |
| 2026-05-04 20:45 | 38.12428 | 15.61860 | 2585 ft | 94 kts | 334° |
| 2026-05-04 20:45 | 38.13023 | 15.61499 | 2886 ft | 95 kts | 334° |
| 2026-05-04 20:45 | 38.13619 | 15.61135 | 3186 ft | 95 kts | 334° |
| 2026-05-04 20:45 | 38.14218 | 15.60769 | 3483 ft | 96 kts | 334° |
| 2026-05-04 20:46 | 38.14819 | 15.60399 | 3787 ft | 96 kts | 334° |
| 2026-05-04 20:46 | 38.15463 | 15.60202 | 4087 ft | 96 kts | 2° |
| 2026-05-04 20:46 | 38.16140 | 15.60253 | 4374 ft | 98 kts | 4° |
| 2026-05-04 20:46 | 38.16822 | 15.60313 | 4670 ft | 99 kts | 4° |
| 2026-05-04 20:47 | 38.17508 | 15.60374 | 4961 ft | 99 kts | 4° |
| 2026-05-04 20:47 | 38.18197 | 15.60435 | 5256 ft | 99 kts | 4° |
| 2026-05-04 20:47 | 38.18890 | 15.60496 | 5551 ft | 100 kts | 4° |
| 2026-05-04 20:47 | 38.19563 | 15.60649 | 5831 ft | 102 kts | 28° |
| 2026-05-04 20:48 | 38.20076 | 15.61405 | 5853 ft | 129 kts | 72° |
| 2026-05-04 20:48 | 38.20019 | 15.62598 | 5847 ft | 147 kts | 115° |
| 2026-05-04 20:48 | 38.19486 | 15.63769 | 5842 ft | 159 kts | 123° |
| 2026-05-04 20:48 | 38.18872 | 15.64972 | 5842 ft | 165 kts | 124° |
| 2026-05-04 20:49 | 38.18232 | 15.66209 | 5841 ft | 169 kts | 124° |
| 2026-05-04 20:49 | 38.17579 | 15.67466 | 5841 ft | 171 kts | 124° |
| 2026-05-04 20:49 | 38.16919 | 15.68735 | 5841 ft | 173 kts | 124° |
| 2026-05-04 20:49 | 38.16253 | 15.70013 | 5841 ft | 174 kts | 124° |
| 2026-05-04 20:50 | 38.15580 | 15.71300 | 5840 ft | 175 kts | 124° |
| 2026-05-04 20:50 | 38.14907 | 15.72586 | 5840 ft | 175 kts | 124° |
| 2026-05-04 20:50 | 38.14232 | 15.73876 | 5840 ft | 175 kts | 124° |
| 2026-05-04 20:50 | 38.13540 | 15.75156 | 5836 ft | 176 kts | 131° |
| 2026-05-04 20:51 | 38.12501 | 15.75912 | 5835 ft | 175 kts | 170° |
| 2026-05-04 20:51 | 38.11326 | 15.75686 | 5839 ft | 173 kts | 208° |
| 2026-05-04 20:51 | 38.10521 | 15.74591 | 5845 ft | 172 kts | 245° |
| 2026-05-04 20:51 | 38.10120 | 15.73158 | 5841 ft | 172 kts | 253° |
| 2026-05-04 20:52 | 38.09780 | 15.71719 | 5841 ft | 172 kts | 253° |
| 2026-05-04 20:52 | 38.09397 | 15.70277 | 5840 ft | 172 kts | 250° |
| 2026-05-04 20:52 | 38.08975 | 15.68855 | 5840 ft | 172 kts | 249° |
| 2026-05-04 20:52 | 38.08545 | 15.67443 | 5840 ft | 172 kts | 249° |
| 2026-05-04 20:53 | 38.08014 | 15.66091 | 5834 ft | 172 kts | 233° |
| 2026-05-04 20:53 | 38.07109 | 15.65107 | 5831 ft | 173 kts | 209° |
| 2026-05-04 20:53 | 38.05960 | 15.64690 | 5829 ft | 173 kts | 184° |
| 2026-05-04 20:53 | 38.04757 | 15.64745 | 5831 ft | 173 kts | 177° |
| 2026-05-04 20:54 | 38.03553 | 15.64843 | 5831 ft | 173 kts | 177° |
| 2026-05-04 20:54 | 38.02346 | 15.64942 | 5772 ft | 176 kts | 177° |
| 2026-05-04 20:54 | 38.01092 | 15.65040 | 5516 ft | 184 kts | 177° |
| 2026-05-04 20:54 | 37.99805 | 15.65141 | 5332 ft | 186 kts | 177° |
| 2026-05-04 20:55 | 37.98516 | 15.65242 | 5155 ft | 186 kts | 177° |
| 2026-05-04 20:55 | 37.97226 | 15.65345 | 4981 ft | 186 kts | 177° |
| 2026-05-04 20:55 | 37.95934 | 15.65447 | 4806 ft | 185 kts | 177° |
| 2026-05-04 20:55 | 37.94649 | 15.65547 | 4623 ft | 184 kts | 177° |
| 2026-05-04 20:56 | 37.93407 | 15.65644 | 4455 ft | 178 kts | 177° |
| 2026-05-04 20:56 | 37.92179 | 15.65741 | 4281 ft | 175 kts | 177° |
| 2026-05-04 20:56 | 37.90968 | 15.65836 | 4106 ft | 173 kts | 177° |
| 2026-05-04 20:56 | 37.89769 | 15.65930 | 3930 ft | 172 kts | 177° |
| 2026-05-04 20:57 | 37.88584 | 15.65865 | 3750 ft | 171 kts | 195° |
| 2026-05-04 20:57 | 37.87572 | 15.65157 | 3578 ft | 169 kts | 224° |
| 2026-05-04 20:57 | 37.86942 | 15.63921 | 3404 ft | 168 kts | 251° |
| 2026-05-04 20:57 | 37.86848 | 15.62464 | 3233 ft | 168 kts | 279° |
| 2026-05-04 20:58 | 37.87305 | 15.61123 | 3055 ft | 168 kts | 307° |
| 2026-05-04 20:58 | 37.88209 | 15.60211 | 2883 ft | 168 kts | 335° |
| 2026-05-04 20:58 | 37.89330 | 15.59949 | 2843 ft | 161 kts | 2° |
| 2026-05-04 20:58 | 37.90396 | 15.60284 | 2842 ft | 156 kts | 18° |
| 2026-05-04 20:59 | 37.91410 | 15.60724 | 2841 ft | 152 kts | 18° |
| 2026-05-04 20:59 | 37.92405 | 15.61159 | 2841 ft | 150 kts | 18° |
| 2026-05-04 20:59 | 37.93387 | 15.61587 | 2841 ft | 149 kts | 18° |
| 2026-05-04 20:59 | 37.94364 | 15.62001 | 2840 ft | 148 kts | 18° |
| 2026-05-04 21:00 | 37.95343 | 15.62426 | 2735 ft | 149 kts | 18° |
| 2026-05-04 21:00 | 37.96284 | 15.62838 | 2578 ft | 138 kts | 18° |
| 2026-05-04 21:00 | 37.97185 | 15.63232 | 2334 ft | 137 kts | 18° |
| 2026-05-04 21:00 | 37.98086 | 15.63625 | 2084 ft | 137 kts | 18° |
| 2026-05-04 21:01 | 37.98960 | 15.64009 | 1852 ft | 129 kts | 18° |
| 2026-05-04 21:01 | 37.99797 | 15.64371 | 1601 ft | 126 kts | 18° |
| 2026-05-04 21:01 | 38.00622 | 15.64732 | 1356 ft | 125 kts | 18° |
| 2026-05-04 21:01 | 38.01394 | 15.65069 | 1332 ft | 109 kts | 18° |
| 2026-05-04 21:02 | 38.02044 | 15.65351 | 1314 ft | 94 kts | 17° |
| 2026-05-04 21:02 | 38.02680 | 15.65601 | 1189 ft | 97 kts | 17° |
| 2026-05-04 21:02 | 38.03328 | 15.65854 | 1008 ft | 97 kts | 14° |
| 2026-05-04 21:02 | 38.03984 | 15.66073 | 771 ft | 98 kts | 14° |
| 2026-05-04 21:03 | 38.04638 | 15.66269 | 565 ft | 96 kts | 8° |
| 2026-05-04 21:03 | 38.05287 | 15.66241 | 423 ft | 91 kts | 347° |
| 2026-05-04 21:03 | 38.05875 | 15.65961 | 293 ft | 92 kts | 331° |
| 2026-05-04 21:03 | 38.06450 | 15.65586 | 131 ft | 93 kts | 332° |
| 2026-05-04 21:04 | 38.06988 | 15.65224 | 42 ft | 76 kts | 333° |
| 2026-05-04 21:04 | 38.07252 | 15.65070 | 48 ft | 16 kts | 360° |
| 2026-05-04 21:04 | 38.07318 | 15.65173 | 56 ft | 17 kts | 69° |
| 2026-05-04 21:04 | 38.07336 | 15.65218 | 56 ft | 0 kts | 62° |
| 2026-05-04 21:05 | 38.07339 | 15.65226 | 56 ft | 4 kts | 62° |
| 2026-05-04 21:05 | 38.07365 | 15.65292 | 60 ft | 5 kts | 62° |
| 2026-05-04 21:05 | 38.07368 | 15.65300 | 60 ft | 0 kts | 62° |